createdAt,value
2022-11-03T00:00:07.000Z,12.2
2022-11-03T00:01:24.000Z,12.2
2022-11-03T00:03:56.000Z,12.2
2022-11-03T00:05:12.000Z,12.2
2022-11-03T00:06:28.000Z,12.2
2022-11-03T00:07:45.000Z,12.2
2022-11-03T00:09:00.000Z,12.2
2022-11-03T00:10:15.000Z,12.2
2022-11-03T00:11:31.000Z,12.2
2022-11-03T00:12:47.000Z,12.2
2022-11-03T00:14:04.000Z,12.2
2022-11-03T00:16:36.000Z,12.2
2022-11-03T00:17:52.000Z,12.1
2022-11-03T00:19:08.000Z,12.1
2022-11-03T00:20:25.000Z,12.2
2022-11-03T00:21:41.000Z,12.2
2022-11-03T00:22:57.000Z,12.1
2022-11-03T00:24:13.000Z,12.2
2022-11-03T00:25:29.000Z,12.2
2022-11-03T00:26:45.000Z,12.2
2022-11-03T00:28:01.000Z,12.2
2022-11-03T00:29:17.000Z,12.2
2022-11-03T00:30:33.000Z,12.2
2022-11-03T00:31:49.000Z,12.2
2022-11-03T00:33:06.000Z,12.2
2022-11-03T00:34:22.000Z,12.2
2022-11-03T00:35:38.000Z,12.2
2022-11-03T00:36:53.000Z,12.2
2022-11-03T00:38:08.000Z,12.2
2022-11-03T00:39:24.000Z,12.2
2022-11-03T00:40:39.000Z,12.2
2022-11-03T00:41:55.000Z,12.2
2022-11-03T00:43:11.000Z,12.2
2022-11-03T00:44:26.000Z,12.2
2022-11-03T00:45:42.000Z,12.2
2022-11-03T00:46:58.000Z,12.2
2022-11-03T00:48:14.000Z,12.1
2022-11-03T00:49:30.000Z,12.1
2022-11-03T00:50:46.000Z,12.1
2022-11-03T00:52:03.000Z,12.1
2022-11-03T00:53:19.000Z,12.1
2022-11-03T00:54:35.000Z,12.1
2022-11-03T00:55:51.000Z,12
2022-11-03T00:57:07.000Z,12
2022-11-03T00:58:24.000Z,12
2022-11-03T00:59:40.000Z,12
2022-11-03T01:00:56.000Z,11.9
2022-11-03T01:02:11.000Z,11.9
2022-11-03T01:03:27.000Z,11.9
2022-11-03T01:04:44.000Z,11.9
2022-11-03T01:06:00.000Z,12
2022-11-03T01:07:16.000Z,12
2022-11-03T01:08:32.000Z,12
2022-11-03T01:09:48.000Z,11.9
2022-11-03T01:11:04.000Z,11.9
2022-11-03T01:12:19.000Z,11.9
2022-11-03T01:13:35.000Z,11.9
2022-11-03T01:14:50.000Z,11.9
2022-11-03T01:16:05.000Z,11.9
2022-11-03T01:17:22.000Z,11.9
2022-11-03T01:19:54.000Z,11.9
2022-11-03T01:21:10.000Z,12
2022-11-03T01:22:26.000Z,11.9
2022-11-03T01:23:43.000Z,11.9
2022-11-03T01:24:59.000Z,11.9
2022-11-03T01:26:15.000Z,11.8
2022-11-03T01:27:31.000Z,11.9
2022-11-03T01:28:47.000Z,11.8
2022-11-03T01:30:04.000Z,11.8
2022-11-03T01:31:20.000Z,11.8
2022-11-03T01:32:35.000Z,11.8
2022-11-03T01:33:51.000Z,11.8
2022-11-03T01:35:07.000Z,11.8
2022-11-03T01:36:24.000Z,11.8
2022-11-03T01:37:40.000Z,11.9
2022-11-03T01:38:56.000Z,11.8
2022-11-03T01:40:12.000Z,11.8
2022-11-03T01:41:28.000Z,11.8
2022-11-03T01:42:44.000Z,11.8
2022-11-03T01:44:00.000Z,11.8
2022-11-03T01:45:15.000Z,11.8
2022-11-03T01:46:31.000Z,11.7
2022-11-03T01:47:47.000Z,11.7
2022-11-03T01:49:03.000Z,11.7
2022-11-03T01:50:20.000Z,11.7
2022-11-03T01:51:36.000Z,11.7
2022-11-03T01:52:52.000Z,11.7
2022-11-03T01:54:08.000Z,11.7
2022-11-03T01:55:24.000Z,11.7
2022-11-03T01:57:57.000Z,11.6
2022-11-03T01:59:13.000Z,11.6
2022-11-03T02:00:29.000Z,11.6
2022-11-03T02:01:44.000Z,11.6
2022-11-03T02:03:01.000Z,11.6
2022-11-03T02:04:17.000Z,11.6
2022-11-03T02:05:33.000Z,11.6
2022-11-03T02:06:49.000Z,11.6
2022-11-03T02:08:05.000Z,11.6
2022-11-03T02:09:22.000Z,11.6
2022-11-03T02:10:38.000Z,11.5
2022-11-03T02:11:53.000Z,11.5
2022-11-03T02:13:08.000Z,11.5
2022-11-03T02:14:23.000Z,11.5
2022-11-03T02:15:39.000Z,11.5
2022-11-03T02:16:55.000Z,11.5
2022-11-03T02:18:11.000Z,11.5
2022-11-03T02:19:27.000Z,11.5
2022-11-03T02:20:43.000Z,11.4
2022-11-03T02:23:16.000Z,11.4
2022-11-03T02:24:32.000Z,11.4
2022-11-03T02:25:48.000Z,11.4
2022-11-03T02:27:04.000Z,11.4
2022-11-03T02:28:21.000Z,11.4
2022-11-03T02:29:37.000Z,11.5
2022-11-03T02:30:53.000Z,11.4
2022-11-03T02:32:08.000Z,11.5
2022-11-03T02:33:24.000Z,11.4
2022-11-03T02:34:41.000Z,11.5
2022-11-03T02:35:57.000Z,11.5
2022-11-03T02:37:13.000Z,11.5
2022-11-03T02:38:29.000Z,11.5
2022-11-03T02:39:45.000Z,11.6
2022-11-03T02:41:02.000Z,11.6
2022-11-03T02:42:17.000Z,11.6
2022-11-03T02:43:32.000Z,11.6
2022-11-03T02:44:48.000Z,11.6
2022-11-03T02:46:03.000Z,11.7
2022-11-03T02:48:35.000Z,11.6
2022-11-03T02:49:51.000Z,11.6
2022-11-03T02:51:07.000Z,11.6
2022-11-03T02:52:23.000Z,11.6
2022-11-03T02:53:40.000Z,11.6
2022-11-03T02:54:56.000Z,11.7
2022-11-03T02:56:12.000Z,11.6
2022-11-03T02:57:28.000Z,11.6
2022-11-03T02:58:44.000Z,11.7
2022-11-03T03:01:17.000Z,11.6
2022-11-03T03:02:33.000Z,11.6
2022-11-03T03:03:48.000Z,11.6
2022-11-03T03:05:04.000Z,11.6
2022-11-03T03:06:20.000Z,11.6
2022-11-03T03:07:37.000Z,11.6
2022-11-03T03:08:53.000Z,11.6
2022-11-03T03:10:09.000Z,11.6
2022-11-03T03:11:25.000Z,11.6
2022-11-03T03:12:41.000Z,11.6
2022-11-03T03:13:58.000Z,11.6
2022-11-03T03:15:13.000Z,11.7
2022-11-03T03:16:28.000Z,11.7
2022-11-03T03:17:43.000Z,11.7
2022-11-03T03:18:59.000Z,11.7
2022-11-03T03:20:15.000Z,11.7
2022-11-03T03:21:31.000Z,11.7
2022-11-03T03:22:47.000Z,11.7
2022-11-03T03:24:03.000Z,11.8
2022-11-03T03:25:19.000Z,11.8
2022-11-03T03:26:36.000Z,11.8
2022-11-03T03:27:52.000Z,11.8
2022-11-03T03:29:08.000Z,11.8
2022-11-03T03:30:24.000Z,11.8
2022-11-03T03:31:40.000Z,11.8
2022-11-03T03:32:57.000Z,11.8
2022-11-03T03:34:13.000Z,11.8
2022-11-03T03:35:28.000Z,11.8
2022-11-03T03:36:44.000Z,11.8
2022-11-03T03:38:00.000Z,11.8
2022-11-03T03:39:17.000Z,11.8
2022-11-03T03:40:33.000Z,11.9
2022-11-03T03:41:49.000Z,11.9
2022-11-03T03:43:05.000Z,11.9
2022-11-03T03:44:20.000Z,11.9
2022-11-03T03:45:36.000Z,11.9
2022-11-03T03:46:52.000Z,11.9
2022-11-03T03:48:08.000Z,11.9
2022-11-03T03:49:24.000Z,11.9
2022-11-03T03:50:40.000Z,11.9
2022-11-03T03:51:57.000Z,11.9
2022-11-03T03:53:13.000Z,11.9
2022-11-03T03:54:29.000Z,11.9
2022-11-03T03:55:45.000Z,11.9
2022-11-03T03:57:01.000Z,12
2022-11-03T03:58:18.000Z,11.9
2022-11-03T03:59:34.000Z,11.9
2022-11-03T04:00:50.000Z,11.9
2022-11-03T04:02:05.000Z,11.9
2022-11-03T04:03:21.000Z,11.9
2022-11-03T04:04:38.000Z,11.9
2022-11-03T04:05:54.000Z,11.9
2022-11-03T04:07:10.000Z,11.9
2022-11-03T04:08:26.000Z,12
2022-11-03T04:09:42.000Z,12
2022-11-03T04:10:58.000Z,12
2022-11-03T04:12:13.000Z,12
2022-11-03T04:13:28.000Z,12
2022-11-03T04:14:43.000Z,12
2022-11-03T04:15:59.000Z,12
2022-11-03T04:17:16.000Z,12
2022-11-03T04:18:32.000Z,12
2022-11-03T04:19:47.000Z,12
2022-11-03T04:21:02.000Z,12
2022-11-03T04:22:18.000Z,12
2022-11-03T04:23:35.000Z,12
2022-11-03T04:24:51.000Z,12
2022-11-03T04:26:07.000Z,12
2022-11-03T04:27:23.000Z,12
2022-11-03T04:28:39.000Z,12
2022-11-03T04:29:56.000Z,12
2022-11-03T04:31:12.000Z,12
2022-11-03T04:32:28.000Z,12
2022-11-03T04:33:44.000Z,12
2022-11-03T04:35:00.000Z,12
2022-11-03T04:36:17.000Z,12
2022-11-03T04:37:32.000Z,12
2022-11-03T04:38:48.000Z,12
2022-11-03T04:40:04.000Z,12
2022-11-03T04:42:36.000Z,12
2022-11-03T04:43:53.196Z,12.1
2022-11-03T04:45:09.000Z,12.1
2022-11-03T04:46:25.000Z,12.1
2022-11-03T04:47:40.000Z,12.1
2022-11-03T04:48:56.000Z,12.1
2022-11-03T04:50:11.000Z,12.1
2022-11-03T04:51:26.000Z,12.1
2022-11-03T04:52:42.000Z,12.1
2022-11-03T04:53:58.000Z,12.1
2022-11-03T04:55:15.000Z,12.1
2022-11-03T04:56:31.000Z,12.1
2022-11-03T04:57:47.000Z,12.1
2022-11-03T04:59:03.000Z,12.1
2022-11-03T05:00:19.000Z,12.1
2022-11-03T05:01:35.000Z,12.1
2022-11-03T05:02:52.000Z,12.1
2022-11-03T05:04:08.000Z,12.1
2022-11-03T05:05:24.000Z,12.1
2022-11-03T05:06:40.000Z,12.2
2022-11-03T05:07:55.000Z,12.2
2022-11-03T05:09:12.000Z,12.2
2022-11-03T05:10:28.000Z,12.2
2022-11-03T05:11:44.000Z,12.2
2022-11-03T05:13:00.000Z,12.2
2022-11-03T05:14:16.000Z,12.2
2022-11-03T05:15:33.000Z,12.2
2022-11-03T05:16:49.000Z,12.2
2022-11-03T05:18:04.000Z,12.2
2022-11-03T05:19:19.000Z,12.2
2022-11-03T05:20:35.000Z,12.2
2022-11-03T05:21:52.000Z,12.2
2022-11-03T05:23:07.000Z,12.2
2022-11-03T05:24:22.000Z,12.2
2022-11-03T05:25:38.000Z,12.2
2022-11-03T05:26:54.000Z,12.2
2022-11-03T05:28:11.000Z,12.2
2022-11-03T05:29:27.000Z,12.2
2022-11-03T05:30:43.000Z,12.3
2022-11-03T05:31:59.000Z,12.3
2022-11-03T05:33:15.000Z,12.3
2022-11-03T05:34:32.000Z,12.3
2022-11-03T05:35:48.000Z,12.3
2022-11-03T05:37:04.000Z,12.2
2022-11-03T05:38:20.000Z,12.3
2022-11-03T05:39:36.000Z,12.3
2022-11-03T05:40:52.000Z,12.3
2022-11-03T05:42:08.000Z,12.3
2022-11-03T05:43:24.000Z,12.3
2022-11-03T05:44:40.000Z,12.3
2022-11-03T05:45:56.000Z,12.3
2022-11-03T05:47:13.000Z,12.3
2022-11-03T05:48:29.000Z,12.3
2022-11-03T05:49:44.000Z,12.3
2022-11-03T05:50:59.000Z,12.3
2022-11-03T05:52:14.000Z,12.3
2022-11-03T05:53:30.000Z,12.3
2022-11-03T05:54:46.000Z,12.4
2022-11-03T05:56:02.000Z,12.4
2022-11-03T05:57:18.000Z,12.4
2022-11-03T05:58:34.000Z,12.4
2022-11-03T05:59:51.000Z,12.4
2022-11-03T06:01:07.000Z,12.4
2022-11-03T06:02:23.000Z,12.4
2022-11-03T06:03:39.000Z,12.4
2022-11-03T06:04:55.000Z,12.4
2022-11-03T06:06:12.000Z,12.4
2022-11-03T06:07:28.000Z,12.4
2022-11-03T06:08:44.000Z,12.4
2022-11-03T06:10:00.000Z,12.4
2022-11-03T06:11:15.000Z,12.5
2022-11-03T06:12:32.000Z,12.5
2022-11-03T06:13:48.000Z,12.5
2022-11-03T06:15:04.000Z,12.5
2022-11-03T06:16:20.000Z,12.5
2022-11-03T06:17:36.000Z,12.5
2022-11-03T06:18:52.000Z,12.5
2022-11-03T06:20:07.000Z,12.5
2022-11-03T06:21:23.000Z,12.5
2022-11-03T06:22:39.000Z,12.5
2022-11-03T06:23:55.000Z,12.5
2022-11-03T06:25:12.000Z,12.5
2022-11-03T06:26:28.000Z,12.6
2022-11-03T06:27:44.000Z,12.6
2022-11-03T06:29:00.000Z,12.6
2022-11-03T06:30:16.000Z,12.6
2022-11-03T06:31:32.000Z,12.6
2022-11-03T06:32:49.000Z,12.6
2022-11-03T06:34:05.000Z,12.6
2022-11-03T06:35:21.000Z,12.6
2022-11-03T06:36:37.000Z,12.6
2022-11-03T06:37:52.000Z,12.6
2022-11-03T06:39:09.000Z,12.6
2022-11-03T06:40:25.000Z,12.7
2022-11-03T06:41:41.000Z,12.6
2022-11-03T06:44:13.000Z,12.6
2022-11-03T06:45:30.000Z,12.6
2022-11-03T06:46:45.000Z,12.6
2022-11-03T06:48:01.000Z,12.6
2022-11-03T06:49:16.000Z,12.6
2022-11-03T06:50:31.000Z,12.6
2022-11-03T06:51:48.000Z,12.6
2022-11-03T06:53:04.000Z,12.7
2022-11-03T06:54:20.000Z,12.6
2022-11-03T06:55:36.000Z,12.6
2022-11-03T06:56:52.000Z,12.6
2022-11-03T06:58:09.000Z,12.6
2022-11-03T06:59:25.000Z,12.6
2022-11-03T07:00:41.000Z,12.6
2022-11-03T07:01:57.000Z,12.6
2022-11-03T07:03:13.000Z,12.6
2022-11-03T07:04:30.000Z,12.5
2022-11-03T07:05:46.000Z,12.4
2022-11-03T07:07:01.000Z,12.4
2022-11-03T07:08:17.000Z,12.3
2022-11-03T07:09:33.000Z,12.3
2022-11-03T07:10:50.000Z,12.2
2022-11-03T07:12:06.000Z,12.2
2022-11-03T07:14:38.000Z,12.1
2022-11-03T07:15:54.000Z,12.1
2022-11-03T07:17:10.000Z,12.1
2022-11-03T07:18:25.000Z,12.1
2022-11-03T07:19:40.000Z,12.2
2022-11-03T07:20:55.000Z,12.2
2022-11-03T07:22:11.000Z,12.1
2022-11-03T07:23:28.000Z,12.2
2022-11-03T07:24:44.000Z,12.2
2022-11-03T07:27:16.000Z,12.2
2022-11-03T07:28:32.000Z,12.2
2022-11-03T07:31:05.000Z,12.3
2022-11-03T07:32:20.000Z,12.3
2022-11-03T07:33:36.000Z,12.4
2022-11-03T07:34:52.000Z,12.4
2022-11-03T07:36:08.000Z,12.4
2022-11-03T07:37:23.000Z,12.4
2022-11-03T07:39:55.000Z,12.4
2022-11-03T07:41:11.000Z,12.5
2022-11-03T07:42:28.000Z,12.5
2022-11-03T07:43:44.000Z,12.5
2022-11-03T07:45:00.000Z,12.4
2022-11-03T07:46:16.000Z,12.4
2022-11-03T07:47:32.000Z,12.5
2022-11-03T07:48:49.000Z,12.4
2022-11-03T07:50:05.000Z,12.4
2022-11-03T07:51:21.000Z,12.4
2022-11-03T07:52:37.000Z,12.4
2022-11-03T07:53:52.000Z,12.4
2022-11-03T07:55:09.000Z,12.4
2022-11-03T07:56:25.000Z,12.3
2022-11-03T07:57:41.000Z,12.4
2022-11-03T07:58:57.000Z,12.4
2022-11-03T08:00:13.000Z,12.4
2022-11-03T08:01:30.000Z,12.5
2022-11-03T08:02:46.000Z,12.5
2022-11-03T08:05:17.000Z,12.5
2022-11-03T08:06:32.000Z,12.5
2022-11-03T08:07:48.000Z,12.5
2022-11-03T08:09:04.000Z,12.6
2022-11-03T08:10:20.000Z,12.6
2022-11-03T08:11:36.000Z,12.6
2022-11-03T08:12:52.000Z,12.6
2022-11-03T08:14:09.000Z,12.6
2022-11-03T08:15:25.000Z,12.6
2022-11-03T08:17:57.000Z,12.7
2022-11-03T08:19:13.000Z,12.7
2022-11-03T08:20:30.000Z,12.7
2022-11-03T08:21:46.000Z,12.7
2022-11-03T08:23:02.000Z,12.7
2022-11-03T08:24:17.000Z,12.7
2022-11-03T08:25:33.000Z,12.8
2022-11-03T08:26:50.000Z,12.8
2022-11-03T08:28:06.000Z,12.8
2022-11-03T08:29:22.000Z,12.9
2022-11-03T08:30:38.000Z,12.9
2022-11-03T08:31:54.000Z,12.9
2022-11-03T08:33:11.000Z,13
2022-11-03T08:34:26.000Z,13.1
2022-11-03T08:35:42.000Z,13.2
2022-11-03T08:36:57.000Z,13.5
2022-11-03T08:38:12.000Z,13.8
2022-11-03T08:39:29.000Z,14
2022-11-03T08:40:44.000Z,14.1
2022-11-03T08:41:59.000Z,14.1
2022-11-03T08:43:15.000Z,14
2022-11-03T08:44:31.000Z,14
2022-11-03T08:45:48.000Z,14
2022-11-03T08:47:04.000Z,14
2022-11-03T08:48:20.000Z,14
2022-11-03T08:49:36.000Z,13.9
2022-11-03T08:50:52.000Z,13.9
2022-11-03T08:52:09.000Z,13.9
2022-11-03T08:53:25.000Z,13.9
2022-11-03T08:55:57.000Z,13.9
2022-11-03T08:57:13.000Z,13.9
2022-11-03T08:58:29.000Z,14
2022-11-03T08:59:45.000Z,14
2022-11-03T09:01:01.000Z,14
2022-11-03T09:02:17.000Z,14
2022-11-03T09:03:33.000Z,14
2022-11-03T09:04:50.000Z,14.1
2022-11-03T09:06:06.000Z,14.2
2022-11-03T09:08:38.000Z,14.2
2022-11-03T09:09:53.000Z,14.2
2022-11-03T09:11:09.000Z,14.3
2022-11-03T09:12:25.000Z,14.3
2022-11-03T09:13:41.000Z,14.3
2022-11-03T09:14:57.000Z,14.3
2022-11-03T09:16:13.000Z,14.4
2022-11-03T09:17:30.000Z,14.4
2022-11-03T09:18:46.000Z,14.4
2022-11-03T09:20:02.000Z,14.4
2022-11-03T09:21:18.000Z,14.4
2022-11-03T09:22:34.000Z,14.4
2022-11-03T09:23:50.000Z,14.5
2022-11-03T09:25:07.000Z,14.5
2022-11-03T09:26:23.000Z,14.5
2022-11-03T09:27:38.000Z,14.6
2022-11-03T09:28:54.000Z,14.6
2022-11-03T09:30:10.000Z,14.6
2022-11-03T09:31:27.000Z,14.6
2022-11-03T09:32:43.000Z,14.7
2022-11-03T09:33:59.000Z,14.7
2022-11-03T09:35:15.000Z,14.7
2022-11-03T09:36:30.000Z,14.7
2022-11-03T09:37:46.000Z,14.7
2022-11-03T09:39:01.000Z,14.7
2022-11-03T09:40:16.000Z,14.7
2022-11-03T09:41:31.000Z,14.7
2022-11-03T09:42:47.000Z,14.7
2022-11-03T09:44:03.000Z,14.7
2022-11-03T09:45:19.000Z,14.7
2022-11-03T09:46:35.000Z,14.8
2022-11-03T09:47:51.000Z,14.8
2022-11-03T09:49:08.000Z,14.8
2022-11-03T09:50:24.000Z,14.8
2022-11-03T09:51:40.000Z,14.8
2022-11-03T09:54:12.000Z,14.9
2022-11-03T09:55:29.000Z,14.9
2022-11-03T09:56:45.000Z,14.9
2022-11-03T09:59:17.000Z,15
2022-11-03T10:00:32.000Z,15
2022-11-03T10:01:49.000Z,15
2022-11-03T10:03:04.000Z,15.1
2022-11-03T10:05:36.000Z,15.2
2022-11-03T10:06:52.000Z,15.2
2022-11-03T10:08:09.000Z,15.3
2022-11-03T10:09:25.000Z,15.4
2022-11-03T10:10:41.000Z,15.4
2022-11-03T10:11:57.000Z,15.4
2022-11-03T10:13:13.000Z,15.4
2022-11-03T10:14:29.000Z,15.4
2022-11-03T10:15:46.000Z,15.5
2022-11-03T10:17:02.000Z,15.7
2022-11-03T10:18:18.000Z,15.8
2022-11-03T10:19:33.000Z,15.9
2022-11-03T10:20:49.000Z,15.9
2022-11-03T10:22:06.000Z,16
2022-11-03T10:24:38.000Z,15.9
2022-11-03T10:25:53.000Z,15.9
2022-11-03T10:27:08.000Z,15.9
2022-11-03T10:28:25.000Z,15.9
2022-11-03T10:29:41.000Z,15.8
2022-11-03T10:30:57.000Z,15.8
2022-11-03T10:32:13.000Z,15.7
2022-11-03T10:33:29.000Z,15.7
2022-11-03T10:34:46.000Z,15.8
2022-11-03T10:37:18.000Z,15.8
2022-11-03T10:38:34.000Z,15.8
2022-11-03T10:39:50.000Z,15.9
2022-11-03T10:41:07.000Z,15.9
2022-11-03T10:43:39.000Z,16.1
2022-11-03T10:44:54.000Z,16.2
2022-11-03T10:46:10.000Z,16.4
2022-11-03T10:48:43.000Z,16.6
2022-11-03T10:49:59.000Z,16.8
2022-11-03T10:51:15.000Z,16.8
2022-11-03T10:52:31.000Z,16.8
2022-11-03T10:53:48.000Z,16.9
2022-11-03T10:55:04.000Z,16.8
2022-11-03T10:56:19.000Z,16.7
2022-11-03T10:57:34.000Z,16.6
2022-11-03T10:58:50.000Z,16.5
2022-11-03T11:00:06.000Z,16.4
2022-11-03T11:02:37.000Z,16.2
2022-11-03T11:03:53.000Z,16.2
2022-11-03T11:05:09.000Z,16.1
2022-11-03T11:06:26.000Z,16
2022-11-03T11:07:42.000Z,16
2022-11-03T11:08:58.000Z,16
2022-11-03T11:10:14.000Z,15.9
2022-11-03T11:12:47.000Z,15.9
2022-11-03T11:14:03.000Z,15.9
2022-11-03T11:15:19.000Z,15.8
2022-11-03T11:16:35.000Z,15.8
2022-11-03T11:17:50.000Z,15.7
2022-11-03T11:19:07.000Z,15.7
2022-11-03T11:20:23.000Z,15.6
2022-11-03T11:21:39.000Z,15.6
2022-11-03T11:22:55.000Z,15.5
2022-11-03T11:24:11.000Z,15.5
2022-11-03T11:25:28.000Z,15.5
2022-11-03T11:28:00.000Z,15.5
2022-11-03T11:29:16.000Z,15.5
2022-11-03T11:30:31.000Z,15.5
2022-11-03T11:31:47.000Z,15.5
2022-11-03T11:33:02.000Z,15.5
2022-11-03T11:34:17.000Z,15.5
2022-11-03T11:36:49.000Z,15.6
2022-11-03T11:38:06.000Z,15.6
2022-11-03T11:40:38.000Z,15.7
2022-11-03T11:41:54.000Z,15.7
2022-11-03T11:43:10.000Z,15.7
2022-11-03T11:44:27.000Z,15.7
2022-11-03T11:45:43.000Z,15.5
2022-11-03T11:46:58.000Z,15.5
2022-11-03T11:48:14.000Z,15.5
2022-11-03T11:49:30.000Z,15.5
2022-11-03T11:50:47.000Z,15.4
2022-11-03T11:52:03.000Z,15.4
2022-11-03T11:53:19.000Z,15.4
2022-11-03T11:54:35.000Z,15.4
2022-11-03T11:55:51.000Z,15.3
2022-11-03T11:57:08.000Z,15.3
2022-11-03T11:58:24.000Z,15.2
2022-11-03T11:59:40.000Z,15.2
2022-11-03T12:00:56.000Z,15.2
2022-11-03T12:02:11.000Z,15.2
2022-11-03T12:03:27.000Z,15.2
2022-11-03T12:05:59.000Z,15.2
2022-11-03T12:07:15.000Z,15.2
2022-11-03T12:08:30.000Z,15.2
2022-11-03T12:09:46.000Z,15.1
2022-11-03T12:11:02.000Z,15.1
2022-11-03T12:12:18.000Z,15.1
2022-11-03T12:13:34.000Z,15.1
2022-11-03T12:14:50.000Z,15.1
2022-11-03T12:16:07.000Z,15.2
2022-11-03T12:17:23.000Z,15.2
2022-11-03T12:18:39.000Z,15.2
2022-11-03T12:19:55.000Z,15.3
2022-11-03T12:21:11.000Z,15.3
2022-11-03T12:22:27.000Z,15.3
2022-11-03T12:23:42.000Z,15.4
2022-11-03T12:24:58.000Z,15.4
2022-11-03T12:26:14.000Z,15.5
2022-11-03T12:27:30.000Z,15.6
2022-11-03T12:28:47.000Z,15.6
2022-11-03T12:30:03.000Z,15.7
2022-11-03T12:31:19.000Z,15.8
2022-11-03T12:32:35.000Z,15.9
2022-11-03T12:33:51.000Z,15.9
2022-11-03T12:35:08.000Z,15.8
2022-11-03T12:36:23.000Z,15.8
2022-11-03T12:37:38.000Z,15.9
2022-11-03T12:38:54.000Z,16
2022-11-03T12:40:10.000Z,16.1
2022-11-03T12:41:27.000Z,16.1
2022-11-03T12:43:59.000Z,16.1
2022-11-03T12:46:31.000Z,16
2022-11-03T12:47:48.000Z,16
2022-11-03T12:49:04.000Z,16
2022-11-03T12:50:20.000Z,16
2022-11-03T12:51:36.000Z,16
2022-11-03T12:52:51.000Z,16
2022-11-03T12:54:07.000Z,16
2022-11-03T12:55:23.000Z,16.1
2022-11-03T12:56:39.000Z,16
2022-11-03T12:57:55.000Z,16
2022-11-03T12:59:11.000Z,16.1
2022-11-03T13:00:28.000Z,16
2022-11-03T13:01:44.000Z,16
2022-11-03T13:03:00.000Z,16.1
2022-11-03T13:04:16.000Z,16.1
2022-11-03T13:05:32.000Z,16.1
2022-11-03T13:06:48.000Z,16.2
2022-11-03T13:09:19.000Z,16.2
2022-11-03T13:10:35.000Z,16.3
2022-11-03T13:11:51.000Z,16.3
2022-11-03T13:13:08.000Z,16.3
2022-11-03T13:14:24.000Z,16.2
2022-11-03T13:15:40.000Z,16.2
2022-11-03T13:16:56.000Z,16.2
2022-11-03T13:18:12.000Z,16.2
2022-11-03T13:19:29.000Z,16.2
2022-11-03T13:22:01.000Z,16.2
2022-11-03T13:23:17.000Z,16.2
2022-11-03T13:24:32.000Z,16.2
2022-11-03T13:25:49.000Z,16.2
2022-11-03T13:27:05.000Z,16.3
2022-11-03T13:28:21.000Z,16.3
2022-11-03T13:29:37.000Z,16.3
2022-11-03T13:30:53.000Z,16.3
2022-11-03T13:32:10.000Z,16.2
2022-11-03T13:33:26.000Z,16.2
2022-11-03T13:34:42.000Z,16.3
2022-11-03T13:35:57.000Z,16.3
2022-11-03T13:37:12.000Z,16.2
2022-11-03T13:38:29.000Z,16.3
2022-11-03T13:39:45.000Z,16.3
2022-11-03T13:41:00.000Z,16.3
2022-11-03T13:42:15.000Z,16.3
2022-11-03T13:43:31.000Z,16.3
2022-11-03T13:44:48.000Z,16.3
2022-11-03T13:47:20.000Z,16.3
2022-11-03T13:48:36.000Z,16.4
2022-11-03T13:49:52.000Z,16.4
2022-11-03T13:51:09.000Z,16.4
2022-11-03T13:52:25.000Z,16.4
2022-11-03T13:53:41.000Z,16.4
2022-11-03T13:54:57.000Z,16.5
2022-11-03T13:56:13.000Z,16.5
2022-11-03T13:57:30.000Z,16.5
2022-11-03T13:58:45.000Z,16.5
2022-11-03T14:00:01.000Z,16.6
2022-11-03T14:01:17.000Z,16.6
2022-11-03T14:02:33.000Z,16.6
2022-11-03T14:03:50.000Z,16.6
2022-11-03T14:05:06.000Z,16.6
2022-11-03T14:06:22.000Z,16.6
2022-11-03T14:07:38.000Z,16.6
2022-11-03T14:08:53.000Z,16.6
2022-11-03T14:10:09.000Z,16.6
2022-11-03T14:11:25.000Z,16.6
2022-11-03T14:12:41.000Z,16.6
2022-11-03T14:13:57.000Z,16.6
2022-11-03T14:15:13.000Z,16.5
2022-11-03T14:16:30.000Z,16.5
2022-11-03T14:17:46.000Z,16.5
2022-11-03T14:19:02.000Z,16.5
2022-11-03T14:20:18.000Z,16.5
2022-11-03T14:21:34.000Z,16.5
2022-11-03T14:22:50.000Z,16.5
2022-11-03T14:25:23.000Z,16.5
2022-11-03T14:26:38.000Z,16.4
2022-11-03T14:27:54.000Z,16.4
2022-11-03T14:29:10.000Z,16.4
2022-11-03T14:30:27.000Z,16.4
2022-11-03T14:31:43.000Z,16.4
2022-11-03T14:32:59.000Z,16.4
2022-11-03T14:34:15.000Z,16.4
2022-11-03T14:35:31.000Z,16.4
2022-11-03T14:36:47.000Z,16.4
2022-11-03T14:38:02.000Z,16.4
2022-11-03T14:39:17.000Z,16.4
2022-11-03T14:40:32.000Z,16.3
2022-11-03T14:41:49.000Z,16.3
2022-11-03T14:43:05.000Z,16.3
2022-11-03T14:44:21.000Z,16.3
2022-11-03T14:45:37.000Z,16.3
2022-11-03T14:46:53.000Z,16.2
2022-11-03T14:48:09.000Z,16.2
2022-11-03T14:49:26.000Z,16.2
2022-11-03T14:50:42.000Z,16.2
2022-11-03T14:51:58.000Z,16.2
2022-11-03T14:53:14.000Z,16.2
2022-11-03T14:54:30.000Z,16.2
2022-11-03T14:55:47.000Z,16.2
2022-11-03T14:57:02.000Z,16.2
2022-11-03T14:58:18.000Z,16.2
2022-11-03T14:59:34.000Z,16.2
2022-11-03T15:00:50.000Z,16.1
2022-11-03T15:03:23.000Z,16.1
2022-11-03T15:04:39.000Z,16.1
2022-11-03T15:05:55.000Z,16
2022-11-03T15:07:10.000Z,16
2022-11-03T15:08:26.000Z,16
2022-11-03T15:09:42.000Z,16
2022-11-03T15:10:57.000Z,15.9
2022-11-03T15:12:12.000Z,15.9
2022-11-03T15:13:29.000Z,15.9
2022-11-03T15:14:45.000Z,15.9
2022-11-03T15:16:01.000Z,15.9
2022-11-03T15:17:17.000Z,15.9
2022-11-03T15:18:33.000Z,15.8
2022-11-03T15:19:49.000Z,15.8
2022-11-03T15:21:06.000Z,15.8
2022-11-03T15:22:22.000Z,15.8
2022-11-03T15:23:38.000Z,15.8
2022-11-03T15:24:54.000Z,15.8
2022-11-03T15:26:10.000Z,15.8
2022-11-03T15:27:27.000Z,15.8
2022-11-03T15:28:42.000Z,15.7
2022-11-03T15:29:58.000Z,15.7
2022-11-03T15:31:14.000Z,15.7
2022-11-03T15:33:47.000Z,15.7
2022-11-03T15:36:19.000Z,15.7
2022-11-03T15:37:34.000Z,15.6
2022-11-03T15:38:49.000Z,15.6
2022-11-03T15:40:06.000Z,15.6
2022-11-03T15:41:22.000Z,15.6
2022-11-03T15:42:38.000Z,15.6
2022-11-03T15:43:54.000Z,15.5
2022-11-03T15:45:10.000Z,15.5
2022-11-03T15:46:27.000Z,15.5
2022-11-03T15:47:43.000Z,15.5
2022-11-03T15:48:59.000Z,15.4
2022-11-03T15:50:15.000Z,15.4
2022-11-03T15:51:30.000Z,15.4
2022-11-03T15:52:46.000Z,15.4
2022-11-03T15:54:02.000Z,15.4
2022-11-03T15:55:18.000Z,15.4
2022-11-03T15:56:34.000Z,15.4
2022-11-03T15:57:50.000Z,15.4
2022-11-03T15:59:07.000Z,15.4
2022-11-03T16:00:23.000Z,15.3
2022-11-03T16:01:38.000Z,15.3
2022-11-03T16:02:54.000Z,15.3
2022-11-03T16:04:10.000Z,15.2
2022-11-03T16:06:43.000Z,15.2
2022-11-03T16:07:59.000Z,15.2
2022-11-03T16:09:15.000Z,15.1
2022-11-03T16:10:31.000Z,15.1
2022-11-03T16:11:48.000Z,15.1
2022-11-03T16:13:04.000Z,15.1
2022-11-03T16:14:20.000Z,15
2022-11-03T16:15:36.000Z,15
2022-11-03T16:16:52.000Z,15
2022-11-03T16:18:08.000Z,15
2022-11-03T16:19:23.000Z,15
2022-11-03T16:20:38.000Z,14.9
2022-11-03T16:21:53.000Z,14.9
2022-11-03T16:23:08.000Z,14.9
2022-11-03T16:24:25.000Z,14.9
2022-11-03T16:25:41.000Z,14.8
2022-11-03T16:26:57.000Z,14.7
2022-11-03T16:28:13.000Z,14.5
2022-11-03T16:29:29.000Z,14.4
2022-11-03T16:30:46.000Z,14.4
2022-11-03T16:32:02.000Z,14.3
2022-11-03T16:33:18.000Z,14.3
2022-11-03T16:34:34.000Z,14.3
2022-11-03T16:35:50.000Z,14.2
2022-11-03T16:37:07.000Z,14.2
2022-11-03T16:38:23.000Z,14.1
2022-11-03T16:39:38.000Z,14
2022-11-03T16:40:54.000Z,14
2022-11-03T16:42:10.000Z,13.9
2022-11-03T16:44:43.000Z,13.9
2022-11-03T16:45:59.000Z,13.9
2022-11-03T16:47:15.000Z,13.9
2022-11-03T16:48:31.000Z,13.8
2022-11-03T16:49:47.000Z,13.8
2022-11-03T16:51:02.000Z,13.8
2022-11-03T16:52:17.000Z,13.8
2022-11-03T16:53:33.000Z,13.8
2022-11-03T16:54:48.000Z,13.8
2022-11-03T16:56:05.000Z,13.8
2022-11-03T16:57:21.000Z,13.8
2022-11-03T16:58:37.000Z,13.8
2022-11-03T16:59:53.000Z,13.8
2022-11-03T17:01:09.000Z,13.8
2022-11-03T17:02:26.000Z,13.9
2022-11-03T17:03:42.000Z,13.8
2022-11-03T17:04:58.000Z,13.8
2022-11-03T17:06:14.000Z,13.8
2022-11-03T17:07:30.000Z,13.8
2022-11-03T17:08:47.000Z,13.8
2022-11-03T17:10:03.000Z,13.8
2022-11-03T17:11:18.000Z,13.8
2022-11-03T17:12:34.000Z,13.7
2022-11-03T17:13:50.000Z,13.7
2022-11-03T17:15:07.000Z,13.7
2022-11-03T17:16:23.000Z,13.6
2022-11-03T17:17:39.000Z,13.6
2022-11-03T17:18:54.000Z,13.5
2022-11-03T17:20:09.000Z,13.5
2022-11-03T17:21:25.000Z,13.5
2022-11-03T17:22:40.000Z,13.5
2022-11-03T17:23:56.000Z,13.5
2022-11-03T17:25:12.000Z,13.5
2022-11-03T17:26:28.000Z,13.5
2022-11-03T17:27:45.000Z,13.5
2022-11-03T17:29:01.000Z,13.5
2022-11-03T17:30:17.000Z,13.6
2022-11-03T17:31:33.000Z,13.6
2022-11-03T17:32:49.000Z,13.6
2022-11-03T17:34:06.000Z,13.6
2022-11-03T17:35:22.000Z,13.5
2022-11-03T17:36:38.000Z,13.5
2022-11-03T17:37:54.000Z,13.5
2022-11-03T17:39:09.000Z,13.5
2022-11-03T17:40:26.000Z,13.5
2022-11-03T17:41:42.000Z,13.6
2022-11-03T17:42:58.000Z,13.5
2022-11-03T17:44:14.000Z,13.5
2022-11-03T17:45:30.000Z,13.5
2022-11-03T17:48:03.000Z,13.5
2022-11-03T17:49:18.000Z,13.4
2022-11-03T17:50:33.000Z,13.5